sensor_id;sensor_type;location;lat;lon;timestamp;P1;durP1;ratioP1;P2;durP2;ratioP2
23586;SDS011;11971;51.148;4.104;2022-07-06T00:00:12;7.43;;;4.90;;
23586;SDS011;11971;51.148;4.104;2022-07-06T00:02:40;9.23;;;4.82;;
23586;SDS011;11971;51.148;4.104;2022-07-06T00:05:07;9.95;;;4.63;;
23586;SDS011;11971;51.148;4.104;2022-07-06T00:07:34;13.95;;;5.43;;
23586;SDS011;11971;51.148;4.104;2022-07-06T00:10:04;9.52;;;5.68;;
23586;SDS011;11971;51.148;4.104;2022-07-06T00:14:58;9.30;;;5.40;;
23586;SDS011;11971;51.148;4.104;2022-07-06T00:17:25;8.90;;;5.05;;
23586;SDS011;11971;51.148;4.104;2022-07-06T00:19:52;9.13;;;5.55;;
23586;SDS011;11971;51.148;4.104;2022-07-06T00:22:20;8.90;;;5.20;;
23586;SDS011;11971;51.148;4.104;2022-07-06T00:24:47;10.13;;;5.30;;
23586;SDS011;11971;51.148;4.104;2022-07-06T00:27:16;11.98;;;5.47;;
23586;SDS011;11971;51.148;4.104;2022-07-06T00:29:43;8.57;;;4.80;;
23586;SDS011;11971;51.148;4.104;2022-07-06T00:32:10;7.20;;;4.82;;
23586;SDS011;11971;51.148;4.104;2022-07-06T00:34:38;7.63;;;5.43;;
23586;SDS011;11971;51.148;4.104;2022-07-06T00:37:05;10.35;;;5.30;;
23586;SDS011;11971;51.148;4.104;2022-07-06T00:39:33;9.18;;;5.32;;
23586;SDS011;11971;51.148;4.104;2022-07-06T00:42:00;9.07;;;5.35;;
23586;SDS011;11971;51.148;4.104;2022-07-06T00:44:29;10.68;;;5.00;;
23586;SDS011;11971;51.148;4.104;2022-07-06T00:46:58;10.63;;;5.38;;
23586;SDS011;11971;51.148;4.104;2022-07-06T00:49:25;7.47;;;5.38;;
23586;SDS011;11971;51.148;4.104;2022-07-06T00:52:12;9.57;;;6.05;;
23586;SDS011;11971;51.148;4.104;2022-07-06T00:54:40;8.40;;;5.03;;
23586;SDS011;11971;51.148;4.104;2022-07-06T00:57:08;8.25;;;5.13;;
23586;SDS011;11971;51.148;4.104;2022-07-06T00:59:37;8.38;;;5.50;;
23586;SDS011;11971;51.148;4.104;2022-07-06T01:02:05;8.13;;;5.30;;
23586;SDS011;11971;51.148;4.104;2022-07-06T01:04:32;6.38;;;5.10;;
23586;SDS011;11971;51.148;4.104;2022-07-06T01:07:00;7.03;;;4.90;;
23586;SDS011;11971;51.148;4.104;2022-07-06T01:09:27;7.72;;;5.63;;
23586;SDS011;11971;51.148;4.104;2022-07-06T01:11:54;9.88;;;5.68;;
23586;SDS011;11971;51.148;4.104;2022-07-06T01:14:22;8.77;;;5.97;;
23586;SDS011;11971;51.148;4.104;2022-07-06T01:16:50;9.55;;;5.45;;
23586;SDS011;11971;51.148;4.104;2022-07-06T01:19:18;10.02;;;5.45;;
23586;SDS011;11971;51.148;4.104;2022-07-06T01:21:47;11.05;;;5.43;;
23586;SDS011;11971;51.148;4.104;2022-07-06T01:24:14;7.47;;;5.20;;
23586;SDS011;11971;51.148;4.104;2022-07-06T01:26:41;7.40;;;5.38;;
23586;SDS011;11971;51.148;4.104;2022-07-06T01:29:08;13.77;;;5.32;;
23586;SDS011;11971;51.148;4.104;2022-07-06T01:31:41;11.15;;;5.68;;
23586;SDS011;11971;51.148;4.104;2022-07-06T01:34:12;10.52;;;6.30;;
23586;SDS011;11971;51.148;4.104;2022-07-06T01:36:40;11.50;;;5.97;;
23586;SDS011;11971;51.148;4.104;2022-07-06T01:39:09;12.20;;;6.22;;
23586;SDS011;11971;51.148;4.104;2022-07-06T01:41:36;10.35;;;6.45;;
23586;SDS011;11971;51.148;4.104;2022-07-06T01:44:04;8.77;;;5.97;;
23586;SDS011;11971;51.148;4.104;2022-07-06T01:46:32;10.75;;;6.03;;
23586;SDS011;11971;51.148;4.104;2022-07-06T01:48:59;9.50;;;6.05;;
23586;SDS011;11971;51.148;4.104;2022-07-06T01:51:26;7.43;;;5.75;;
23586;SDS011;11971;51.148;4.104;2022-07-06T01:53:54;10.55;;;5.95;;
23586;SDS011;11971;51.148;4.104;2022-07-06T01:56:22;7.88;;;5.88;;
23586;SDS011;11971;51.148;4.104;2022-07-06T01:58:50;8.93;;;5.60;;
23586;SDS011;11971;51.148;4.104;2022-07-06T02:01:18;8.20;;;5.57;;
23586;SDS011;11971;51.148;4.104;2022-07-06T02:03:45;10.30;;;6.03;;
23586;SDS011;11971;51.148;4.104;2022-07-06T02:06:13;8.32;;;5.53;;
23586;SDS011;11971;51.148;4.104;2022-07-06T02:08:40;8.35;;;6.00;;
23586;SDS011;11971;51.148;4.104;2022-07-06T02:11:08;11.02;;;6.00;;
23586;SDS011;11971;51.148;4.104;2022-07-06T02:13:37;11.82;;;6.18;;
23586;SDS011;11971;51.148;4.104;2022-07-06T02:18:32;12.23;;;5.80;;
23586;SDS011;11971;51.148;4.104;2022-07-06T02:20:59;8.80;;;5.50;;
23586;SDS011;11971;51.148;4.104;2022-07-06T02:23:26;10.63;;;6.13;;
23586;SDS011;11971;51.148;4.104;2022-07-06T02:25:54;11.85;;;6.18;;
23586;SDS011;11971;51.148;4.104;2022-07-06T02:28:21;12.73;;;6.25;;
23586;SDS011;11971;51.148;4.104;2022-07-06T02:30:50;10.18;;;6.20;;
23586;SDS011;11971;51.148;4.104;2022-07-06T02:33:17;10.45;;;6.05;;
23586;SDS011;11971;51.148;4.104;2022-07-06T02:35:44;8.82;;;5.80;;
23586;SDS011;11971;51.148;4.104;2022-07-06T02:38:12;10.38;;;6.28;;
23586;SDS011;11971;51.148;4.104;2022-07-06T02:40:39;9.88;;;5.55;;
23586;SDS011;11971;51.148;4.104;2022-07-06T02:43:06;8.52;;;5.78;;
23586;SDS011;11971;51.148;4.104;2022-07-06T02:45:34;8.80;;;5.82;;
23586;SDS011;11971;51.148;4.104;2022-07-06T02:48:03;11.07;;;5.97;;
23586;SDS011;11971;51.148;4.104;2022-07-06T02:50:30;7.70;;;5.78;;
23586;SDS011;11971;51.148;4.104;2022-07-06T02:52:57;7.93;;;5.90;;
23586;SDS011;11971;51.148;4.104;2022-07-06T02:55:26;9.13;;;5.80;;
23586;SDS011;11971;51.148;4.104;2022-07-06T02:57:53;9.48;;;5.75;;
23586;SDS011;11971;51.148;4.104;2022-07-06T03:00:21;8.13;;;5.72;;
23586;SDS011;11971;51.148;4.104;2022-07-06T03:02:48;7.80;;;6.13;;
23586;SDS011;11971;51.148;4.104;2022-07-06T03:05:17;7.50;;;5.90;;
23586;SDS011;11971;51.148;4.104;2022-07-06T03:07:44;8.30;;;5.53;;
23586;SDS011;11971;51.148;4.104;2022-07-06T03:10:11;8.85;;;6.30;;
23586;SDS011;11971;51.148;4.104;2022-07-06T03:12:39;12.48;;;7.43;;
23586;SDS011;11971;51.148;4.104;2022-07-06T03:15:06;10.05;;;6.55;;
23586;SDS011;11971;51.148;4.104;2022-07-06T03:17:35;15.80;;;7.55;;
23586;SDS011;11971;51.148;4.104;2022-07-06T03:20:02;10.85;;;7.55;;
23586;SDS011;11971;51.148;4.104;2022-07-06T03:22:31;10.57;;;6.22;;
23586;SDS011;11971;51.148;4.104;2022-07-06T03:24:59;8.98;;;6.30;;
23586;SDS011;11971;51.148;4.104;2022-07-06T03:27:26;11.40;;;6.45;;
23586;SDS011;11971;51.148;4.104;2022-07-06T03:29:53;11.68;;;6.75;;
23586;SDS011;11971;51.148;4.104;2022-07-06T03:32:20;12.65;;;7.57;;
23586;SDS011;11971;51.148;4.104;2022-07-06T03:34:48;11.23;;;6.90;;
23586;SDS011;11971;51.148;4.104;2022-07-06T03:37:15;12.35;;;7.40;;
23586;SDS011;11971;51.148;4.104;2022-07-06T03:39:44;10.60;;;7.00;;
23586;SDS011;11971;51.148;4.104;2022-07-06T03:42:11;10.07;;;6.95;;
23586;SDS011;11971;51.148;4.104;2022-07-06T03:44:38;11.85;;;7.90;;
23586;SDS011;11971;51.148;4.104;2022-07-06T03:47:06;15.98;;;8.02;;
23586;SDS011;11971;51.148;4.104;2022-07-06T03:49:33;13.30;;;7.82;;
23586;SDS011;11971;51.148;4.104;2022-07-06T03:52:00;10.63;;;7.50;;
23586;SDS011;11971;51.148;4.104;2022-07-06T03:54:28;11.27;;;7.50;;
23586;SDS011;11971;51.148;4.104;2022-07-06T03:56:56;12.13;;;7.68;;
23586;SDS011;11971;51.148;4.104;2022-07-06T03:59:24;13.23;;;8.02;;
23586;SDS011;11971;51.148;4.104;2022-07-06T04:01:51;11.95;;;7.88;;
23586;SDS011;11971;51.148;4.104;2022-07-06T04:04:18;12.75;;;7.10;;
23586;SDS011;11971;51.148;4.104;2022-07-06T04:06:45;12.07;;;7.55;;
23586;SDS011;11971;51.148;4.104;2022-07-06T04:09:13;10.23;;;7.40;;
23586;SDS011;11971;51.148;4.104;2022-07-06T04:11:40;12.93;;;7.88;;
23586;SDS011;11971;51.148;4.104;2022-07-06T04:14:09;11.95;;;7.90;;
23586;SDS011;11971;51.148;4.104;2022-07-06T04:16:36;11.55;;;7.57;;
23586;SDS011;11971;51.148;4.104;2022-07-06T04:19:04;12.85;;;7.78;;
23586;SDS011;11971;51.148;4.104;2022-07-06T04:21:31;12.05;;;8.18;;
23586;SDS011;11971;51.148;4.104;2022-07-06T04:23:58;15.32;;;9.35;;
23586;SDS011;11971;51.148;4.104;2022-07-06T04:26:25;16.63;;;10.43;;
23586;SDS011;11971;51.148;4.104;2022-07-06T04:28:53;16.85;;;10.38;;
23586;SDS011;11971;51.148;4.104;2022-07-06T04:31:21;17.60;;;10.77;;
23586;SDS011;11971;51.148;4.104;2022-07-06T04:33:49;20.10;;;11.32;;
23586;SDS011;11971;51.148;4.104;2022-07-06T04:36:16;17.48;;;10.73;;
23586;SDS011;11971;51.148;4.104;2022-07-06T04:38:43;21.02;;;10.73;;
23586;SDS011;11971;51.148;4.104;2022-07-06T04:41:12;15.10;;;9.80;;
23586;SDS011;11971;51.148;4.104;2022-07-06T04:43:39;20.77;;;10.48;;
23586;SDS011;11971;51.148;4.104;2022-07-06T04:48:37;15.27;;;9.00;;
23586;SDS011;11971;51.148;4.104;2022-07-06T04:51:05;16.55;;;9.70;;
23586;SDS011;11971;51.148;4.104;2022-07-06T04:53:32;14.05;;;9.27;;
23586;SDS011;11971;51.148;4.104;2022-07-06T04:56:00;14.77;;;9.43;;
23586;SDS011;11971;51.148;4.104;2022-07-06T04:58:27;13.70;;;9.23;;
23586;SDS011;11971;51.148;4.104;2022-07-06T05:00:54;17.33;;;10.70;;
23586;SDS011;11971;51.148;4.104;2022-07-06T05:03:21;18.55;;;11.55;;
23586;SDS011;11971;51.148;4.104;2022-07-06T05:05:50;17.25;;;12.52;;
23586;SDS011;11971;51.148;4.104;2022-07-06T05:08:17;22.33;;;13.10;;
23586;SDS011;11971;51.148;4.104;2022-07-06T05:10:45;19.58;;;12.50;;
23586;SDS011;11971;51.148;4.104;2022-07-06T05:13:12;20.77;;;12.52;;
23586;SDS011;11971;51.148;4.104;2022-07-06T05:15:39;20.05;;;12.20;;
23586;SDS011;11971;51.148;4.104;2022-07-06T05:18:07;20.02;;;13.00;;
23586;SDS011;11971;51.148;4.104;2022-07-06T05:20:34;22.65;;;12.52;;
23586;SDS011;11971;51.148;4.104;2022-07-06T05:23:03;15.80;;;11.63;;
23586;SDS011;11971;51.148;4.104;2022-07-06T05:25:30;20.63;;;12.27;;
23586;SDS011;11971;51.148;4.104;2022-07-06T05:27:58;19.02;;;10.30;;
23586;SDS011;11971;51.148;4.104;2022-07-06T05:30:26;15.25;;;10.68;;
23586;SDS011;11971;51.148;4.104;2022-07-06T05:32:53;17.25;;;11.23;;
23586;SDS011;11971;51.148;4.104;2022-07-06T05:35:20;19.88;;;11.65;;
23586;SDS011;11971;51.148;4.104;2022-07-06T05:37:47;16.08;;;9.95;;
23586;SDS011;11971;51.148;4.104;2022-07-06T05:40:16;16.83;;;11.18;;
23586;SDS011;11971;51.148;4.104;2022-07-06T05:42:43;25.95;;;11.80;;
23586;SDS011;11971;51.148;4.104;2022-07-06T05:45:11;20.45;;;11.35;;
23586;SDS011;11971;51.148;4.104;2022-07-06T05:47:38;19.40;;;10.48;;
23586;SDS011;11971;51.148;4.104;2022-07-06T05:50:23;19.05;;;10.40;;
23586;SDS011;11971;51.148;4.104;2022-07-06T05:52:57;20.70;;;11.30;;
23586;SDS011;11971;51.148;4.104;2022-07-06T05:55:27;19.15;;;11.15;;
23586;SDS011;11971;51.148;4.104;2022-07-06T05:57:54;18.35;;;11.18;;
23586;SDS011;11971;51.148;4.104;2022-07-06T06:00:22;23.40;;;11.15;;
23586;SDS011;11971;51.148;4.104;2022-07-06T06:02:50;28.20;;;12.90;;
23586;SDS011;11971;51.148;4.104;2022-07-06T06:05:18;28.95;;;13.07;;
23586;SDS011;11971;51.148;4.104;2022-07-06T06:07:45;22.58;;;12.48;;
23586;SDS011;11971;51.148;4.104;2022-07-06T06:10:13;24.33;;;12.40;;
23586;SDS011;11971;51.148;4.104;2022-07-06T06:12:43;28.95;;;12.98;;
23586;SDS011;11971;51.148;4.104;2022-07-06T06:15:11;26.48;;;11.50;;
23586;SDS011;11971;51.148;4.104;2022-07-06T06:20:08;24.20;;;12.30;;
23586;SDS011;11971;51.148;4.104;2022-07-06T06:22:43;27.38;;;12.73;;
23586;SDS011;11971;51.148;4.104;2022-07-06T06:25:11;25.38;;;12.45;;
23586;SDS011;11971;51.148;4.104;2022-07-06T06:27:38;24.38;;;12.73;;
23586;SDS011;11971;51.148;4.104;2022-07-06T06:30:08;23.73;;;12.57;;
23586;SDS011;11971;51.148;4.104;2022-07-06T06:32:35;20.58;;;12.68;;
23586;SDS011;11971;51.148;4.104;2022-07-06T06:35:06;23.92;;;12.43;;
23586;SDS011;11971;51.148;4.104;2022-07-06T06:37:33;19.35;;;11.57;;
23586;SDS011;11971;51.148;4.104;2022-07-06T06:40:00;18.52;;;11.35;;
23586;SDS011;11971;51.148;4.104;2022-07-06T06:42:27;23.10;;;11.55;;
23586;SDS011;11971;51.148;4.104;2022-07-06T06:44:55;19.65;;;10.77;;
23586;SDS011;11971;51.148;4.104;2022-07-06T06:47:23;14.60;;;8.48;;
23586;SDS011;11971;51.148;4.104;2022-07-06T06:49:51;17.15;;;8.30;;
23586;SDS011;11971;51.148;4.104;2022-07-06T06:52:18;16.25;;;8.25;;
23586;SDS011;11971;51.148;4.104;2022-07-06T06:54:45;13.80;;;7.93;;
23586;SDS011;11971;51.148;4.104;2022-07-06T06:57:12;12.98;;;8.10;;
23586;SDS011;11971;51.148;4.104;2022-07-06T06:59:40;12.45;;;7.22;;
23586;SDS011;11971;51.148;4.104;2022-07-06T07:02:07;14.23;;;7.45;;
23586;SDS011;11971;51.148;4.104;2022-07-06T07:04:35;13.07;;;7.18;;
23586;SDS011;11971;51.148;4.104;2022-07-06T07:07:03;12.65;;;7.00;;
23586;SDS011;11971;51.148;4.104;2022-07-06T07:09:30;12.23;;;7.18;;
23586;SDS011;11971;51.148;4.104;2022-07-06T07:11:57;14.23;;;7.45;;
23586;SDS011;11971;51.148;4.104;2022-07-06T07:14:24;13.57;;;6.32;;
23586;SDS011;11971;51.148;4.104;2022-07-06T07:16:52;12.07;;;6.95;;
23586;SDS011;11971;51.148;4.104;2022-07-06T07:19:20;14.55;;;6.95;;
23586;SDS011;11971;51.148;4.104;2022-07-06T07:21:48;10.95;;;7.05;;
23586;SDS011;11971;51.148;4.104;2022-07-06T07:24:16;16.00;;;8.52;;
23586;SDS011;11971;51.148;4.104;2022-07-06T07:26:43;7.88;;;3.90;;
23586;SDS011;11971;51.148;4.104;2022-07-06T07:29:10;13.40;;;5.88;;
23586;SDS011;11971;51.148;4.104;2022-07-06T07:31:38;10.55;;;5.20;;
23586;SDS011;11971;51.148;4.104;2022-07-06T07:34:05;12.98;;;4.43;;
23586;SDS011;11971;51.148;4.104;2022-07-06T07:36:32;4.97;;;2.60;;
23586;SDS011;11971;51.148;4.104;2022-07-06T07:39:02;12.57;;;4.90;;
23586;SDS011;11971;51.148;4.104;2022-07-06T07:41:29;8.43;;;3.42;;
23586;SDS011;11971;51.148;4.104;2022-07-06T07:43:57;7.38;;;3.20;;
23586;SDS011;11971;51.148;4.104;2022-07-06T07:46:24;9.60;;;4.22;;
23586;SDS011;11971;51.148;4.104;2022-07-06T07:48:51;9.77;;;4.03;;
23586;SDS011;11971;51.148;4.104;2022-07-06T07:51:18;9.27;;;3.95;;
23586;SDS011;11971;51.148;4.104;2022-07-06T07:53:46;7.05;;;2.22;;
23586;SDS011;11971;51.148;4.104;2022-07-06T07:56:14;5.60;;;2.28;;
23586;SDS011;11971;51.148;4.104;2022-07-06T07:58:41;7.75;;;3.03;;
23586;SDS011;11971;51.148;4.104;2022-07-06T08:01:09;3.35;;;1.95;;
23586;SDS011;11971;51.148;4.104;2022-07-06T08:03:36;5.07;;;2.40;;
23586;SDS011;11971;51.148;4.104;2022-07-06T08:06:03;4.22;;;1.70;;
23586;SDS011;11971;51.148;4.104;2022-07-06T08:08:31;12.35;;;2.72;;
23586;SDS011;11971;51.148;4.104;2022-07-06T08:10:58;9.73;;;2.95;;
23586;SDS011;11971;51.148;4.104;2022-07-06T08:13:27;7.03;;;3.10;;
23586;SDS011;11971;51.148;4.104;2022-07-06T08:15:54;9.73;;;3.80;;
23586;SDS011;11971;51.148;4.104;2022-07-06T08:18:21;8.95;;;5.00;;
23586;SDS011;11971;51.148;4.104;2022-07-06T08:20:48;10.68;;;5.70;;
23586;SDS011;11971;51.148;4.104;2022-07-06T08:23:16;8.93;;;5.30;;
23586;SDS011;11971;51.148;4.104;2022-07-06T08:25:43;10.50;;;4.90;;
23586;SDS011;11971;51.148;4.104;2022-07-06T08:28:10;9.75;;;5.28;;
23586;SDS011;11971;51.148;4.104;2022-07-06T08:30:39;11.50;;;5.43;;
23586;SDS011;11971;51.148;4.104;2022-07-06T08:33:06;9.15;;;5.28;;
23586;SDS011;11971;51.148;4.104;2022-07-06T08:35:33;9.10;;;4.75;;
23586;SDS011;11971;51.148;4.104;2022-07-06T08:38:01;10.77;;;5.60;;
23586;SDS011;11971;51.148;4.104;2022-07-06T08:40:30;12.40;;;5.80;;
23586;SDS011;11971;51.148;4.104;2022-07-06T08:42:58;11.55;;;6.18;;
23586;SDS011;11971;51.148;4.104;2022-07-06T08:45:26;9.95;;;5.57;;
23586;SDS011;11971;51.148;4.104;2022-07-06T08:47:55;12.73;;;6.13;;
23586;SDS011;11971;51.148;4.104;2022-07-06T08:50:25;8.85;;;5.32;;
23586;SDS011;11971;51.148;4.104;2022-07-06T08:52:53;10.05;;;5.93;;
23586;SDS011;11971;51.148;4.104;2022-07-06T08:55:20;11.18;;;5.70;;
23586;SDS011;11971;51.148;4.104;2022-07-06T08:57:47;9.65;;;5.57;;
23586;SDS011;11971;51.148;4.104;2022-07-06T09:00:15;11.60;;;5.63;;
23586;SDS011;11971;51.148;4.104;2022-07-06T09:02:42;9.05;;;5.00;;
23586;SDS011;11971;51.148;4.104;2022-07-06T09:05:11;9.93;;;5.05;;
23586;SDS011;11971;51.148;4.104;2022-07-06T09:07:40;11.68;;;5.70;;
23586;SDS011;11971;51.148;4.104;2022-07-06T09:10:08;8.10;;;5.32;;
23586;SDS011;11971;51.148;4.104;2022-07-06T09:12:36;10.00;;;5.38;;
23586;SDS011;11971;51.148;4.104;2022-07-06T09:15:03;10.30;;;5.82;;
23586;SDS011;11971;51.148;4.104;2022-07-06T09:17:31;9.55;;;5.28;;
23586;SDS011;11971;51.148;4.104;2022-07-06T09:19:58;9.65;;;5.05;;
23586;SDS011;11971;51.148;4.104;2022-07-06T09:22:28;9.43;;;5.70;;
23586;SDS011;11971;51.148;4.104;2022-07-06T09:25:06;8.82;;;5.05;;
23586;SDS011;11971;51.148;4.104;2022-07-06T09:27:36;10.73;;;5.00;;
23586;SDS011;11971;51.148;4.104;2022-07-06T09:30:04;10.15;;;4.72;;
23586;SDS011;11971;51.148;4.104;2022-07-06T09:32:37;8.38;;;5.35;;
23586;SDS011;11971;51.148;4.104;2022-07-06T09:35:05;8.70;;;5.03;;
23586;SDS011;11971;51.148;4.104;2022-07-06T09:37:34;11.77;;;5.40;;
23586;SDS011;11971;51.148;4.104;2022-07-06T09:40:02;14.55;;;5.88;;
23586;SDS011;11971;51.148;4.104;2022-07-06T09:42:30;8.73;;;4.50;;
23586;SDS011;11971;51.148;4.104;2022-07-06T09:44:57;10.60;;;5.13;;
23586;SDS011;11971;51.148;4.104;2022-07-06T09:47:25;9.57;;;5.00;;
23586;SDS011;11971;51.148;4.104;2022-07-06T09:49:55;11.75;;;5.55;;
23586;SDS011;11971;51.148;4.104;2022-07-06T09:52:23;10.02;;;5.50;;
23586;SDS011;11971;51.148;4.104;2022-07-06T09:54:52;8.10;;;5.28;;
23586;SDS011;11971;51.148;4.104;2022-07-06T09:57:20;10.30;;;5.70;;
23586;SDS011;11971;51.148;4.104;2022-07-06T09:59:49;12.00;;;6.28;;
23586;SDS011;11971;51.148;4.104;2022-07-06T10:02:17;8.88;;;5.15;;
23586;SDS011;11971;51.148;4.104;2022-07-06T10:04:47;8.07;;;4.70;;
23586;SDS011;11971;51.148;4.104;2022-07-06T10:07:15;7.90;;;5.45;;
23586;SDS011;11971;51.148;4.104;2022-07-06T10:09:43;10.85;;;4.97;;
23586;SDS011;11971;51.148;4.104;2022-07-06T10:12:13;10.27;;;5.85;;
23586;SDS011;11971;51.148;4.104;2022-07-06T10:14:43;12.07;;;5.00;;
23586;SDS011;11971;51.148;4.104;2022-07-06T10:17:11;6.85;;;4.43;;
23586;SDS011;11971;51.148;4.104;2022-07-06T10:19:39;13.40;;;5.83;;
23586;SDS011;11971;51.148;4.104;2022-07-06T10:22:06;10.57;;;5.70;;
23586;SDS011;11971;51.148;4.104;2022-07-06T10:24:34;7.50;;;4.57;;
23586;SDS011;11971;51.148;4.104;2022-07-06T10:27:08;8.60;;;4.90;;
23586;SDS011;11971;51.148;4.104;2022-07-06T10:29:38;8.40;;;4.90;;
23586;SDS011;11971;51.148;4.104;2022-07-06T10:32:05;10.32;;;5.00;;
23586;SDS011;11971;51.148;4.104;2022-07-06T10:34:33;12.30;;;4.72;;
23586;SDS011;11971;51.148;4.104;2022-07-06T10:37:01;7.67;;;5.13;;
23586;SDS011;11971;51.148;4.104;2022-07-06T10:39:33;10.80;;;5.20;;
23586;SDS011;11971;51.148;4.104;2022-07-06T10:45:05;11.40;;;4.03;;
23586;SDS011;11971;51.148;4.104;2022-07-06T10:47:33;9.32;;;4.70;;
23586;SDS011;11971;51.148;4.104;2022-07-06T10:50:02;9.30;;;5.18;;
23586;SDS011;11971;51.148;4.104;2022-07-06T10:55:19;11.20;;;4.55;;
23586;SDS011;11971;51.148;4.104;2022-07-06T10:57:54;10.68;;;5.82;;
23586;SDS011;11971;51.148;4.104;2022-07-06T11:00:23;9.57;;;5.50;;
23586;SDS011;11971;51.148;4.104;2022-07-06T11:02:50;12.55;;;5.70;;
23586;SDS011;11971;51.148;4.104;2022-07-06T11:08:00;13.50;;;7.28;;
23586;SDS011;11971;51.148;4.104;2022-07-06T11:10:28;10.07;;;5.88;;
23586;SDS011;11971;51.148;4.104;2022-07-06T11:13:24;12.70;;;5.90;;
23586;SDS011;11971;51.148;4.104;2022-07-06T11:15:53;11.80;;;6.50;;
23586;SDS011;11971;51.148;4.104;2022-07-06T11:18:27;13.25;;;6.57;;
23586;SDS011;11971;51.148;4.104;2022-07-06T11:21:14;10.80;;;5.97;;
23586;SDS011;11971;51.148;4.104;2022-07-06T11:23:41;18.95;;;6.18;;
23586;SDS011;11971;51.148;4.104;2022-07-06T11:26:09;12.00;;;6.65;;
23586;SDS011;11971;51.148;4.104;2022-07-06T11:28:37;13.45;;;6.60;;
23586;SDS011;11971;51.148;4.104;2022-07-06T11:31:05;13.40;;;6.60;;
23586;SDS011;11971;51.148;4.104;2022-07-06T11:33:33;13.25;;;6.63;;
23586;SDS011;11971;51.148;4.104;2022-07-06T11:36:16;15.20;;;7.75;;
23586;SDS011;11971;51.148;4.104;2022-07-06T11:38:43;16.20;;;7.80;;
23586;SDS011;11971;51.148;4.104;2022-07-06T11:41:12;17.13;;;8.57;;
23586;SDS011;11971;51.148;4.104;2022-07-06T11:43:40;12.75;;;8.40;;
23586;SDS011;11971;51.148;4.104;2022-07-06T11:46:24;14.48;;;8.63;;
23586;SDS011;11971;51.148;4.104;2022-07-06T11:48:53;14.55;;;7.90;;
23586;SDS011;11971;51.148;4.104;2022-07-06T11:51:21;17.45;;;8.25;;
23586;SDS011;11971;51.148;4.104;2022-07-06T11:53:49;14.98;;;7.07;;
23586;SDS011;11971;51.148;4.104;2022-07-06T11:56:17;9.85;;;6.10;;
23586;SDS011;11971;51.148;4.104;2022-07-06T11:58:46;17.38;;;5.88;;
23586;SDS011;11971;51.148;4.104;2022-07-06T12:01:13;16.42;;;6.10;;
23586;SDS011;11971;51.148;4.104;2022-07-06T12:03:42;9.35;;;5.80;;
23586;SDS011;11971;51.148;4.104;2022-07-06T12:08:40;13.95;;;5.40;;
23586;SDS011;11971;51.148;4.104;2022-07-06T12:11:08;9.43;;;5.13;;
23586;SDS011;11971;51.148;4.104;2022-07-06T12:13:36;10.88;;;6.28;;
23586;SDS011;11971;51.148;4.104;2022-07-06T12:16:09;11.63;;;5.30;;
23586;SDS011;11971;51.148;4.104;2022-07-06T12:18:37;9.25;;;4.43;;
23586;SDS011;11971;51.148;4.104;2022-07-06T12:21:06;8.90;;;4.90;;
23586;SDS011;11971;51.148;4.104;2022-07-06T12:23:40;10.27;;;5.38;;
23586;SDS011;11971;51.148;4.104;2022-07-06T12:26:08;11.82;;;4.63;;
23586;SDS011;11971;51.148;4.104;2022-07-06T12:28:36;9.90;;;4.63;;
23586;SDS011;11971;51.148;4.104;2022-07-06T12:31:03;9.68;;;4.32;;
23586;SDS011;11971;51.148;4.104;2022-07-06T12:33:30;7.43;;;4.00;;
23586;SDS011;11971;51.148;4.104;2022-07-06T12:36:09;16.65;;;4.95;;
23586;SDS011;11971;51.148;4.104;2022-07-06T12:38:43;10.73;;;4.75;;
23586;SDS011;11971;51.148;4.104;2022-07-06T12:41:11;10.32;;;4.50;;
23586;SDS011;11971;51.148;4.104;2022-07-06T12:43:38;9.25;;;4.25;;
23586;SDS011;11971;51.148;4.104;2022-07-06T12:48:51;8.77;;;4.25;;
23586;SDS011;11971;51.148;4.104;2022-07-06T12:51:23;7.72;;;3.95;;
23586;SDS011;11971;51.148;4.104;2022-07-06T12:53:50;8.05;;;3.67;;
23586;SDS011;11971;51.148;4.104;2022-07-06T12:56:17;6.78;;;3.58;;
23586;SDS011;11971;51.148;4.104;2022-07-06T12:58:58;9.07;;;3.93;;
23586;SDS011;11971;51.148;4.104;2022-07-06T13:01:25;9.63;;;3.63;;
23586;SDS011;11971;51.148;4.104;2022-07-06T13:03:53;8.30;;;3.42;;
23586;SDS011;11971;51.148;4.104;2022-07-06T13:06:32;9.53;;;3.20;;
23586;SDS011;11971;51.148;4.104;2022-07-06T13:08:59;5.50;;;3.30;;
23586;SDS011;11971;51.148;4.104;2022-07-06T13:11:27;5.68;;;2.50;;
23586;SDS011;11971;51.148;4.104;2022-07-06T13:13:54;11.07;;;3.28;;
23586;SDS011;11971;51.148;4.104;2022-07-06T13:16:21;8.13;;;3.20;;
23586;SDS011;11971;51.148;4.104;2022-07-06T13:18:55;8.77;;;3.00;;
23586;SDS011;11971;51.148;4.104;2022-07-06T13:21:22;6.57;;;3.17;;
23586;SDS011;11971;51.148;4.104;2022-07-06T13:23:51;10.35;;;3.38;;
23586;SDS011;11971;51.148;4.104;2022-07-06T13:26:18;5.45;;;3.30;;
23586;SDS011;11971;51.148;4.104;2022-07-06T13:28:45;7.35;;;3.40;;
23586;SDS011;11971;51.148;4.104;2022-07-06T13:31:12;5.50;;;3.15;;
23586;SDS011;11971;51.148;4.104;2022-07-06T13:33:40;7.10;;;3.00;;
23586;SDS011;11971;51.148;4.104;2022-07-06T13:36:07;5.07;;;2.67;;
23586;SDS011;11971;51.148;4.104;2022-07-06T13:38:35;12.43;;;2.75;;
23586;SDS011;11971;51.148;4.104;2022-07-06T13:41:03;8.88;;;2.83;;
23586;SDS011;11971;51.148;4.104;2022-07-06T13:43:31;5.05;;;2.58;;
23586;SDS011;11971;51.148;4.104;2022-07-06T13:46:02;6.50;;;2.60;;
23586;SDS011;11971;51.148;4.104;2022-07-06T13:48:30;4.72;;;2.67;;
23586;SDS011;11971;51.148;4.104;2022-07-06T13:50:57;7.40;;;2.97;;
23586;SDS011;11971;51.148;4.104;2022-07-06T13:53:25;7.03;;;2.72;;
23586;SDS011;11971;51.148;4.104;2022-07-06T13:55:52;5.45;;;2.50;;
23586;SDS011;11971;51.148;4.104;2022-07-06T13:58:21;6.78;;;2.58;;
23586;SDS011;11971;51.148;4.104;2022-07-06T14:00:48;11.52;;;3.80;;
23586;SDS011;11971;51.148;4.104;2022-07-06T14:03:15;7.55;;;4.07;;
23586;SDS011;11971;51.148;4.104;2022-07-06T14:05:43;7.93;;;3.33;;
23586;SDS011;11971;51.148;4.104;2022-07-06T14:08:10;7.45;;;5.40;;
23586;SDS011;11971;51.148;4.104;2022-07-06T14:10:37;11.23;;;5.40;;
23586;SDS011;11971;51.148;4.104;2022-07-06T14:13:05;10.55;;;4.80;;
23586;SDS011;11971;51.148;4.104;2022-07-06T14:15:33;11.82;;;5.43;;
23586;SDS011;11971;51.148;4.104;2022-07-06T14:18:00;12.05;;;5.82;;
23586;SDS011;11971;51.148;4.104;2022-07-06T14:20:28;12.25;;;5.80;;
23586;SDS011;11971;51.148;4.104;2022-07-06T14:22:55;12.18;;;5.32;;
23586;SDS011;11971;51.148;4.104;2022-07-06T14:25:22;8.80;;;4.72;;
23586;SDS011;11971;51.148;4.104;2022-07-06T14:27:49;9.95;;;4.60;;
23586;SDS011;11971;51.148;4.104;2022-07-06T14:30:17;6.30;;;4.03;;
23586;SDS011;11971;51.148;4.104;2022-07-06T14:32:46;7.82;;;4.55;;
23586;SDS011;11971;51.148;4.104;2022-07-06T14:35:13;7.38;;;3.65;;
23586;SDS011;11971;51.148;4.104;2022-07-06T14:37:40;12.52;;;5.13;;
23586;SDS011;11971;51.148;4.104;2022-07-06T14:40:08;8.63;;;4.93;;
23586;SDS011;11971;51.148;4.104;2022-07-06T14:42:35;10.18;;;5.30;;
23586;SDS011;11971;51.148;4.104;2022-07-06T14:45:03;13.80;;;6.50;;
23586;SDS011;11971;51.148;4.104;2022-07-06T14:47:30;9.27;;;5.72;;
23586;SDS011;11971;51.148;4.104;2022-07-06T14:49:59;11.50;;;6.22;;
23586;SDS011;11971;51.148;4.104;2022-07-06T14:52:26;9.80;;;6.10;;
23586;SDS011;11971;51.148;4.104;2022-07-06T14:54:53;8.15;;;5.45;;
23586;SDS011;11971;51.148;4.104;2022-07-06T14:57:22;9.35;;;5.45;;
23586;SDS011;11971;51.148;4.104;2022-07-06T14:59:49;8.68;;;5.35;;
23586;SDS011;11971;51.148;4.104;2022-07-06T15:02:16;10.50;;;5.15;;
23586;SDS011;11971;51.148;4.104;2022-07-06T15:04:43;10.15;;;5.18;;
23586;SDS011;11971;51.148;4.104;2022-07-06T15:07:12;9.98;;;6.20;;